sensor_id;sensor_type;location;lat;lon;timestamp;temperature;humidity
22471;DHT22;11402;51.374;6.594;2023-08-31T00:02:03;12.80;99.90
22471;DHT22;11402;51.374;6.594;2023-08-31T00:04:29;12.80;99.90
22471;DHT22;11402;51.374;6.594;2023-08-31T00:06:55;12.70;99.90
22471;DHT22;11402;51.374;6.594;2023-08-31T00:09:23;12.60;99.90
22471;DHT22;11402;51.374;6.594;2023-08-31T00:11:49;12.70;99.90
22471;DHT22;11402;51.374;6.594;2023-08-31T00:14:15;12.70;99.90
22471;DHT22;11402;51.374;6.594;2023-08-31T00:16:41;12.60;99.90
22471;DHT22;11402;51.374;6.594;2023-08-31T00:19:07;12.60;99.90
22471;DHT22;11402;51.374;6.594;2023-08-31T00:21:32;12.70;99.90
22471;DHT22;11402;51.374;6.594;2023-08-31T00:23:58;12.60;99.90
22471;DHT22;11402;51.374;6.594;2023-08-31T00:26:24;12.70;99.90
22471;DHT22;11402;51.374;6.594;2023-08-31T00:28:50;12.70;99.90
22471;DHT22;11402;51.374;6.594;2023-08-31T00:31:16;12.70;99.90
22471;DHT22;11402;51.374;6.594;2023-08-31T00:33:41;12.70;99.90
22471;DHT22;11402;51.374;6.594;2023-08-31T00:36:08;12.70;99.90
22471;DHT22;11402;51.374;6.594;2023-08-31T00:38:34;12.80;99.90
22471;DHT22;11402;51.374;6.594;2023-08-31T00:41:00;12.70;99.90
22471;DHT22;11402;51.374;6.594;2023-08-31T00:43:25;12.60;99.90
22471;DHT22;11402;51.374;6.594;2023-08-31T00:45:54;12.60;99.90
22471;DHT22;11402;51.374;6.594;2023-08-31T00:48:23;12.50;99.90
22471;DHT22;11402;51.374;6.594;2023-08-31T00:50:49;12.70;99.90
22471;DHT22;11402;51.374;6.594;2023-08-31T00:53:16;12.90;99.90
22471;DHT22;11402;51.374;6.594;2023-08-31T00:55:44;12.90;99.90
22471;DHT22;11402;51.374;6.594;2023-08-31T00:58:10;13.00;99.90
22471;DHT22;11402;51.374;6.594;2023-08-31T01:12:11;12.50;99.90
22471;DHT22;11402;51.374;6.594;2023-08-31T01:15:01;12.50;99.90
22471;DHT22;11402;51.374;6.594;2023-08-31T01:17:29;12.40;99.90
22471;DHT22;11402;51.374;6.594;2023-08-31T01:19:58;12.20;99.90
22471;DHT22;11402;51.374;6.594;2023-08-31T01:22:43;12.20;99.90
22471;DHT22;11402;51.374;6.594;2023-08-31T01:25:12;12.30;99.90
22471;DHT22;11402;51.374;6.594;2023-08-31T01:27:38;12.30;99.90
22471;DHT22;11402;51.374;6.594;2023-08-31T01:30:06;12.30;99.90
22471;DHT22;11402;51.374;6.594;2023-08-31T01:32:32;12.30;99.90
22471;DHT22;11402;51.374;6.594;2023-08-31T01:34:58;12.30;99.90
22471;DHT22;11402;51.374;6.594;2023-08-31T01:37:50;12.30;99.90
22471;DHT22;11402;51.374;6.594;2023-08-31T01:40:26;12.40;99.90
22471;DHT22;11402;51.374;6.594;2023-08-31T01:42:54;12.40;99.90
22471;DHT22;11402;51.374;6.594;2023-08-31T01:45:22;12.30;99.90
22471;DHT22;11402;51.374;6.594;2023-08-31T01:47:48;12.30;99.90
22471;DHT22;11402;51.374;6.594;2023-08-31T01:50:13;12.20;99.90
22471;DHT22;11402;51.374;6.594;2023-08-31T01:52:39;12.10;99.90
22471;DHT22;11402;51.374;6.594;2023-08-31T01:55:05;12.20;99.90
22471;DHT22;11402;51.374;6.594;2023-08-31T01:57:32;12.10;99.90
22471;DHT22;11402;51.374;6.594;2023-08-31T01:59:58;12.20;99.90
22471;DHT22;11402;51.374;6.594;2023-08-31T02:02:24;12.10;99.90
22471;DHT22;11402;51.374;6.594;2023-08-31T02:04:50;12.10;99.90
22471;DHT22;11402;51.374;6.594;2023-08-31T02:07:18;12.10;99.90
22471;DHT22;11402;51.374;6.594;2023-08-31T02:09:44;12.10;99.90
22471;DHT22;11402;51.374;6.594;2023-08-31T02:12:10;12.00;99.90
22471;DHT22;11402;51.374;6.594;2023-08-31T02:14:36;12.00;99.90
22471;DHT22;11402;51.374;6.594;2023-08-31T02:17:02;11.90;99.90
22471;DHT22;11402;51.374;6.594;2023-08-31T02:19:27;11.80;99.90
22471;DHT22;11402;51.374;6.594;2023-08-31T02:21:53;11.80;99.90
22471;DHT22;11402;51.374;6.594;2023-08-31T02:24:19;11.80;99.90
22471;DHT22;11402;51.374;6.594;2023-08-31T02:26:44;11.70;99.90
22471;DHT22;11402;51.374;6.594;2023-08-31T02:29:10;11.80;99.90
22471;DHT22;11402;51.374;6.594;2023-08-31T02:31:36;11.80;99.90
22471;DHT22;11402;51.374;6.594;2023-08-31T02:34:03;11.70;99.90
22471;DHT22;11402;51.374;6.594;2023-08-31T02:36:29;11.60;99.90
22471;DHT22;11402;51.374;6.594;2023-08-31T02:38:56;11.60;99.90
22471;DHT22;11402;51.374;6.594;2023-08-31T02:41:22;11.60;99.90
22471;DHT22;11402;51.374;6.594;2023-08-31T02:43:50;11.50;99.90
22471;DHT22;11402;51.374;6.594;2023-08-31T02:46:16;11.50;99.90
22471;DHT22;11402;51.374;6.594;2023-08-31T02:48:42;11.70;99.90
22471;DHT22;11402;51.374;6.594;2023-08-31T02:51:08;11.60;99.90
22471;DHT22;11402;51.374;6.594;2023-08-31T02:53:33;11.60;99.90
22471;DHT22;11402;51.374;6.594;2023-08-31T02:55:59;11.60;99.90
22471;DHT22;11402;51.374;6.594;2023-08-31T02:58:24;11.60;99.90
22471;DHT22;11402;51.374;6.594;2023-08-31T03:00:50;11.60;99.90
22471;DHT22;11402;51.374;6.594;2023-08-31T03:03:16;11.60;99.90
22471;DHT22;11402;51.374;6.594;2023-08-31T03:05:42;11.70;99.90
22471;DHT22;11402;51.374;6.594;2023-08-31T03:08:07;11.60;99.90
22471;DHT22;11402;51.374;6.594;2023-08-31T03:10:33;11.60;99.90
22471;DHT22;11402;51.374;6.594;2023-08-31T03:12:58;11.70;99.90
22471;DHT22;11402;51.374;6.594;2023-08-31T03:15:24;11.80;99.90
22471;DHT22;11402;51.374;6.594;2023-08-31T03:17:49;11.80;99.90
22471;DHT22;11402;51.374;6.594;2023-08-31T03:20:15;11.90;99.90
22471;DHT22;11402;51.374;6.594;2023-08-31T03:22:41;11.90;99.90
22471;DHT22;11402;51.374;6.594;2023-08-31T03:25:07;12.00;99.90
22471;DHT22;11402;51.374;6.594;2023-08-31T03:27:32;11.90;99.90
22471;DHT22;11402;51.374;6.594;2023-08-31T03:29:58;11.90;99.90
22471;DHT22;11402;51.374;6.594;2023-08-31T03:32:23;12.00;99.90
22471;DHT22;11402;51.374;6.594;2023-08-31T03:34:49;12.00;99.90
22471;DHT22;11402;51.374;6.594;2023-08-31T03:37:15;12.10;99.90
22471;DHT22;11402;51.374;6.594;2023-08-31T03:39:41;12.10;99.90
22471;DHT22;11402;51.374;6.594;2023-08-31T03:42:10;12.10;99.90
22471;DHT22;11402;51.374;6.594;2023-08-31T03:44:36;12.10;99.90
22471;DHT22;11402;51.374;6.594;2023-08-31T03:47:03;12.10;99.90
22471;DHT22;11402;51.374;6.594;2023-08-31T03:49:28;12.20;99.90
22471;DHT22;11402;51.374;6.594;2023-08-31T03:51:55;12.10;99.90
22471;DHT22;11402;51.374;6.594;2023-08-31T03:54:21;12.10;99.90
22471;DHT22;11402;51.374;6.594;2023-08-31T03:56:46;12.10;99.90
22471;DHT22;11402;51.374;6.594;2023-08-31T03:59:12;12.10;99.90
22471;DHT22;11402;51.374;6.594;2023-08-31T04:01:38;11.90;99.90
22471;DHT22;11402;51.374;6.594;2023-08-31T04:04:03;11.80;99.90
22471;DHT22;11402;51.374;6.594;2023-08-31T04:06:29;11.80;99.90
22471;DHT22;11402;51.374;6.594;2023-08-31T04:08:55;11.80;99.90
22471;DHT22;11402;51.374;6.594;2023-08-31T04:11:21;11.90;99.90
22471;DHT22;11402;51.374;6.594;2023-08-31T04:13:47;11.90;99.90
22471;DHT22;11402;51.374;6.594;2023-08-31T04:16:12;12.00;99.90
22471;DHT22;11402;51.374;6.594;2023-08-31T04:18:38;12.10;99.90
22471;DHT22;11402;51.374;6.594;2023-08-31T04:21:04;12.10;99.90
22471;DHT22;11402;51.374;6.594;2023-08-31T04:23:29;12.00;99.90
22471;DHT22;11402;51.374;6.594;2023-08-31T04:25:55;12.00;99.90
22471;DHT22;11402;51.374;6.594;2023-08-31T04:28:23;11.90;99.90
22471;DHT22;11402;51.374;6.594;2023-08-31T04:30:49;11.80;99.90
22471;DHT22;11402;51.374;6.594;2023-08-31T04:33:15;11.70;99.90
22471;DHT22;11402;51.374;6.594;2023-08-31T04:35:41;11.70;99.90
22471;DHT22;11402;51.374;6.594;2023-08-31T04:38:07;11.60;99.90
22471;DHT22;11402;51.374;6.594;2023-08-31T04:40:32;11.70;99.90
22471;DHT22;11402;51.374;6.594;2023-08-31T04:42:58;11.60;99.90
22471;DHT22;11402;51.374;6.594;2023-08-31T04:45:23;11.60;99.90
22471;DHT22;11402;51.374;6.594;2023-08-31T04:47:49;11.60;99.90
22471;DHT22;11402;51.374;6.594;2023-08-31T04:50:16;11.60;99.90
22471;DHT22;11402;51.374;6.594;2023-08-31T04:52:42;11.80;99.90
22471;DHT22;11402;51.374;6.594;2023-08-31T04:55:08;11.70;99.90
22471;DHT22;11402;51.374;6.594;2023-08-31T04:57:34;11.80;99.90
22471;DHT22;11402;51.374;6.594;2023-08-31T05:00:00;11.80;99.90
22471;DHT22;11402;51.374;6.594;2023-08-31T05:02:25;11.80;99.90
22471;DHT22;11402;51.374;6.594;2023-08-31T05:04:51;11.90;99.90
22471;DHT22;11402;51.374;6.594;2023-08-31T05:07:17;11.90;99.90
22471;DHT22;11402;51.374;6.594;2023-08-31T05:09:42;12.00;99.90
22471;DHT22;11402;51.374;6.594;2023-08-31T05:12:08;11.80;99.90
22471;DHT22;11402;51.374;6.594;2023-08-31T05:14:34;11.80;99.90
22471;DHT22;11402;51.374;6.594;2023-08-31T05:17:06;11.70;99.90
22471;DHT22;11402;51.374;6.594;2023-08-31T05:19:31;11.80;99.90
22471;DHT22;11402;51.374;6.594;2023-08-31T05:21:57;11.80;99.90
22471;DHT22;11402;51.374;6.594;2023-08-31T05:24:23;12.00;99.90
22471;DHT22;11402;51.374;6.594;2023-08-31T05:26:51;12.10;99.90
22471;DHT22;11402;51.374;6.594;2023-08-31T05:29:17;12.10;99.90
22471;DHT22;11402;51.374;6.594;2023-08-31T05:31:42;12.10;99.90
22471;DHT22;11402;51.374;6.594;2023-08-31T05:34:10;12.30;99.90
22471;DHT22;11402;51.374;6.594;2023-08-31T05:36:35;12.40;99.90
22471;DHT22;11402;51.374;6.594;2023-08-31T05:39:01;12.40;99.90
22471;DHT22;11402;51.374;6.594;2023-08-31T05:41:27;12.40;99.90
22471;DHT22;11402;51.374;6.594;2023-08-31T05:43:52;12.50;99.90
22471;DHT22;11402;51.374;6.594;2023-08-31T05:46:18;12.60;99.90
22471;DHT22;11402;51.374;6.594;2023-08-31T05:48:44;12.60;99.90
22471;DHT22;11402;51.374;6.594;2023-08-31T05:51:10;12.70;99.90
22471;DHT22;11402;51.374;6.594;2023-08-31T05:53:35;12.70;99.90
22471;DHT22;11402;51.374;6.594;2023-08-31T05:56:01;12.70;99.90
22471;DHT22;11402;51.374;6.594;2023-08-31T05:58:34;12.70;99.90
22471;DHT22;11402;51.374;6.594;2023-08-31T06:01:01;12.80;99.90
22471;DHT22;11402;51.374;6.594;2023-08-31T06:03:27;12.90;99.90
22471;DHT22;11402;51.374;6.594;2023-08-31T06:05:55;12.90;99.90
22471;DHT22;11402;51.374;6.594;2023-08-31T06:08:21;13.00;99.90
22471;DHT22;11402;51.374;6.594;2023-08-31T06:10:46;13.00;99.90
22471;DHT22;11402;51.374;6.594;2023-08-31T06:13:12;13.00;99.90
22471;DHT22;11402;51.374;6.594;2023-08-31T06:15:38;13.00;99.90
22471;DHT22;11402;51.374;6.594;2023-08-31T06:18:04;13.20;99.90
22471;DHT22;11402;51.374;6.594;2023-08-31T06:20:30;13.30;99.90
22471;DHT22;11402;51.374;6.594;2023-08-31T06:22:56;13.30;99.90
22471;DHT22;11402;51.374;6.594;2023-08-31T06:25:21;13.30;99.90
22471;DHT22;11402;51.374;6.594;2023-08-31T06:27:48;13.30;99.90
22471;DHT22;11402;51.374;6.594;2023-08-31T06:30:14;13.40;99.90
22471;DHT22;11402;51.374;6.594;2023-08-31T06:32:46;13.50;99.90
22471;DHT22;11402;51.374;6.594;2023-08-31T06:35:13;13.60;99.90
22471;DHT22;11402;51.374;6.594;2023-08-31T06:37:39;13.60;99.90
22471;DHT22;11402;51.374;6.594;2023-08-31T06:40:06;13.70;99.90
22471;DHT22;11402;51.374;6.594;2023-08-31T06:42:34;13.80;99.90
22471;DHT22;11402;51.374;6.594;2023-08-31T06:44:59;13.80;99.90
22471;DHT22;11402;51.374;6.594;2023-08-31T06:47:25;14.00;99.90
22471;DHT22;11402;51.374;6.594;2023-08-31T06:49:50;14.00;99.90
22471;DHT22;11402;51.374;6.594;2023-08-31T06:52:16;14.00;99.90
22471;DHT22;11402;51.374;6.594;2023-08-31T06:54:43;14.00;99.90
22471;DHT22;11402;51.374;6.594;2023-08-31T06:57:08;14.10;99.90
22471;DHT22;11402;51.374;6.594;2023-08-31T06:59:34;14.10;99.90
22471;DHT22;11402;51.374;6.594;2023-08-31T07:01:59;14.30;99.90
22471;DHT22;11402;51.374;6.594;2023-08-31T07:04:26;14.20;99.90
22471;DHT22;11402;51.374;6.594;2023-08-31T07:06:52;14.30;99.90
22471;DHT22;11402;51.374;6.594;2023-08-31T07:09:18;14.20;99.90
22471;DHT22;11402;51.374;6.594;2023-08-31T07:11:44;14.20;99.90
22471;DHT22;11402;51.374;6.594;2023-08-31T07:14:09;14.40;99.90
22471;DHT22;11402;51.374;6.594;2023-08-31T07:16:35;14.40;99.90
22471;DHT22;11402;51.374;6.594;2023-08-31T07:19:00;14.50;99.90
22471;DHT22;11402;51.374;6.594;2023-08-31T07:21:26;14.60;99.90
22471;DHT22;11402;51.374;6.594;2023-08-31T07:23:52;14.60;99.90
22471;DHT22;11402;51.374;6.594;2023-08-31T07:26:18;14.60;99.90
22471;DHT22;11402;51.374;6.594;2023-08-31T07:28:43;14.60;99.90
22471;DHT22;11402;51.374;6.594;2023-08-31T07:31:10;14.60;99.90
22471;DHT22;11402;51.374;6.594;2023-08-31T07:33:35;14.70;99.90
22471;DHT22;11402;51.374;6.594;2023-08-31T07:36:02;14.80;99.90
22471;DHT22;11402;51.374;6.594;2023-08-31T07:38:30;14.90;99.90
22471;DHT22;11402;51.374;6.594;2023-08-31T07:40:56;15.00;99.90
22471;DHT22;11402;51.374;6.594;2023-08-31T07:43:21;15.10;99.90
22471;DHT22;11402;51.374;6.594;2023-08-31T07:45:47;15.00;99.90
22471;DHT22;11402;51.374;6.594;2023-08-31T07:48:13;15.00;99.90
22471;DHT22;11402;51.374;6.594;2023-08-31T07:50:42;15.10;99.90
22471;DHT22;11402;51.374;6.594;2023-08-31T07:53:07;15.10;99.90
22471;DHT22;11402;51.374;6.594;2023-08-31T07:55:33;15.20;99.90
22471;DHT22;11402;51.374;6.594;2023-08-31T07:58:00;15.20;99.90
22471;DHT22;11402;51.374;6.594;2023-08-31T08:00:26;15.30;99.90
22471;DHT22;11402;51.374;6.594;2023-08-31T08:02:52;15.40;99.90
22471;DHT22;11402;51.374;6.594;2023-08-31T08:05:17;15.60;99.90
22471;DHT22;11402;51.374;6.594;2023-08-31T08:07:43;15.60;99.90
22471;DHT22;11402;51.374;6.594;2023-08-31T08:10:11;15.60;99.90
22471;DHT22;11402;51.374;6.594;2023-08-31T08:12:41;15.70;99.90
22471;DHT22;11402;51.374;6.594;2023-08-31T08:15:11;15.70;99.90
22471;DHT22;11402;51.374;6.594;2023-08-31T08:17:36;15.80;99.90
22471;DHT22;11402;51.374;6.594;2023-08-31T08:20:03;15.80;99.90
22471;DHT22;11402;51.374;6.594;2023-08-31T08:22:29;15.90;99.90
22471;DHT22;11402;51.374;6.594;2023-08-31T08:24:54;15.90;99.90
22471;DHT22;11402;51.374;6.594;2023-08-31T08:27:20;15.90;99.90
22471;DHT22;11402;51.374;6.594;2023-08-31T08:29:46;16.00;99.90
22471;DHT22;11402;51.374;6.594;2023-08-31T08:32:12;16.10;99.90
22471;DHT22;11402;51.374;6.594;2023-08-31T08:34:38;16.20;99.90
22471;DHT22;11402;51.374;6.594;2023-08-31T08:37:03;16.30;99.90
22471;DHT22;11402;51.374;6.594;2023-08-31T08:39:30;16.30;99.90
22471;DHT22;11402;51.374;6.594;2023-08-31T08:41:58;16.30;99.90
22471;DHT22;11402;51.374;6.594;2023-08-31T08:44:25;16.40;99.90
22471;DHT22;11402;51.374;6.594;2023-08-31T08:46:54;16.60;99.90
22471;DHT22;11402;51.374;6.594;2023-08-31T08:49:23;16.90;99.90
22471;DHT22;11402;51.374;6.594;2023-08-31T08:51:49;16.90;99.90
22471;DHT22;11402;51.374;6.594;2023-08-31T08:54:17;16.10;99.90
22471;DHT22;11402;51.374;6.594;2023-08-31T08:56:43;17.00;99.90
22471;DHT22;11402;51.374;6.594;2023-08-31T08:59:09;17.20;99.90
22471;DHT22;11402;51.374;6.594;2023-08-31T09:01:39;17.20;99.90
22471;DHT22;11402;51.374;6.594;2023-08-31T09:04:05;17.20;99.90
22471;DHT22;11402;51.374;6.594;2023-08-31T09:06:32;17.30;99.90
22471;DHT22;11402;51.374;6.594;2023-08-31T09:08:57;17.40;99.90
22471;DHT22;11402;51.374;6.594;2023-08-31T09:11:24;17.50;99.90
22471;DHT22;11402;51.374;6.594;2023-08-31T09:13:51;17.50;99.90
22471;DHT22;11402;51.374;6.594;2023-08-31T09:16:27;17.50;99.90
22471;DHT22;11402;51.374;6.594;2023-08-31T09:18:57;17.50;99.90
22471;DHT22;11402;51.374;6.594;2023-08-31T09:21:35;17.50;99.90
22471;DHT22;11402;51.374;6.594;2023-08-31T09:24:00;17.50;99.90
22471;DHT22;11402;51.374;6.594;2023-08-31T09:26:26;17.60;99.90
22471;DHT22;11402;51.374;6.594;2023-08-31T09:28:52;17.90;99.90
22471;DHT22;11402;51.374;6.594;2023-08-31T09:31:17;18.10;99.90
22471;DHT22;11402;51.374;6.594;2023-08-31T09:33:50;18.10;99.90
22471;DHT22;11402;51.374;6.594;2023-08-31T09:36:16;18.20;99.90
22471;DHT22;11402;51.374;6.594;2023-08-31T09:38:42;17.90;99.90
22471;DHT22;11402;51.374;6.594;2023-08-31T09:41:09;18.40;99.90
22471;DHT22;11402;51.374;6.594;2023-08-31T09:43:34;18.40;99.90
22471;DHT22;11402;51.374;6.594;2023-08-31T09:46:02;18.60;99.90
22471;DHT22;11402;51.374;6.594;2023-08-31T09:48:29;18.50;99.90
22471;DHT22;11402;51.374;6.594;2023-08-31T09:50:55;18.60;99.90
22471;DHT22;11402;51.374;6.594;2023-08-31T09:53:21;18.70;99.90
22471;DHT22;11402;51.374;6.594;2023-08-31T09:55:49;18.60;99.90
22471;DHT22;11402;51.374;6.594;2023-08-31T09:58:19;18.50;99.90
22471;DHT22;11402;51.374;6.594;2023-08-31T10:00:46;18.40;99.90
22471;DHT22;11402;51.374;6.594;2023-08-31T10:03:12;18.50;99.90
22471;DHT22;11402;51.374;6.594;2023-08-31T10:05:43;18.50;99.90
22471;DHT22;11402;51.374;6.594;2023-08-31T10:08:09;18.30;99.90
22471;DHT22;11402;51.374;6.594;2023-08-31T10:10:37;18.30;99.90
22471;DHT22;11402;51.374;6.594;2023-08-31T10:13:04;18.40;99.90
22471;DHT22;11402;51.374;6.594;2023-08-31T10:15:32;18.40;99.90
22471;DHT22;11402;51.374;6.594;2023-08-31T10:18:05;18.20;99.90
22471;DHT22;11402;51.374;6.594;2023-08-31T10:20:32;18.30;99.90
22471;DHT22;11402;51.374;6.594;2023-08-31T10:23:08;18.40;99.90
22471;DHT22;11402;51.374;6.594;2023-08-31T10:28:19;18.50;99.90
22471;DHT22;11402;51.374;6.594;2023-08-31T10:31:10;18.50;99.90
22471;DHT22;11402;51.374;6.594;2023-08-31T10:33:46;18.70;99.90
22471;DHT22;11402;51.374;6.594;2023-08-31T10:36:16;18.70;99.90
22471;DHT22;11402;51.374;6.594;2023-08-31T10:39:10;18.70;99.90
22471;DHT22;11402;51.374;6.594;2023-08-31T10:41:35;18.70;99.90
22471;DHT22;11402;51.374;6.594;2023-08-31T10:44:00;18.70;99.90
22471;DHT22;11402;51.374;6.594;2023-08-31T10:46:42;18.70;99.90
22471;DHT22;11402;51.374;6.594;2023-08-31T10:51:38;19.00;99.90
22471;DHT22;11402;51.374;6.594;2023-08-31T10:59:24;19.50;99.90
22471;DHT22;11402;51.374;6.594;2023-08-31T11:01:55;19.60;99.90
22471;DHT22;11402;51.374;6.594;2023-08-31T11:04:22;19.60;99.90
22471;DHT22;11402;51.374;6.594;2023-08-31T11:06:48;19.50;99.90
22471;DHT22;11402;51.374;6.594;2023-08-31T11:09:19;19.60;99.90
22471;DHT22;11402;51.374;6.594;2023-08-31T11:11:45;19.60;99.90
22471;DHT22;11402;51.374;6.594;2023-08-31T11:14:11;19.50;99.90
22471;DHT22;11402;51.374;6.594;2023-08-31T11:16:40;19.40;99.90
22471;DHT22;11402;51.374;6.594;2023-08-31T11:19:05;19.40;99.90
22471;DHT22;11402;51.374;6.594;2023-08-31T11:21:31;19.40;99.90
22471;DHT22;11402;51.374;6.594;2023-08-31T11:23:58;19.50;99.90
22471;DHT22;11402;51.374;6.594;2023-08-31T11:26:25;19.30;99.90
22471;DHT22;11402;51.374;6.594;2023-08-31T11:28:51;19.30;99.90
22471;DHT22;11402;51.374;6.594;2023-08-31T11:41:12;18.80;99.90
